createdAt,value
2023-03-29T00:02:17.691Z,101090.88
2023-03-29T00:05:25.560Z,101086.53
2023-03-29T00:08:29.861Z,101089.81
2023-03-29T00:11:32.985Z,101092.38
2023-03-29T00:14:35.700Z,101083.78
2023-03-29T00:17:38.490Z,101088.44
2023-03-29T00:20:41.206Z,101087.56
2023-03-29T00:23:44.127Z,101090.56
2023-03-29T00:26:48.940Z,101086.13
2023-03-29T00:29:51.947Z,101090.91
2023-03-29T00:32:54.745Z,101091.69
2023-03-29T00:35:57.563Z,101090.88
2023-03-29T00:39:00.771Z,101090.59
2023-03-29T00:42:03.893Z,101086.75
2023-03-29T00:45:12.409Z,101088.47
2023-03-29T00:48:22.295Z,101083.41
2023-03-29T00:51:28.129Z,101083.97
2023-03-29T00:54:33.247Z,101089.53
2023-03-29T00:57:37.643Z,101097.56
2023-03-29T01:00:58.134Z,101096.19
2023-03-29T01:04:18.002Z,101097.66
2023-03-29T01:07:28.616Z,101093.84
2023-03-29T01:10:34.618Z,101101.00
2023-03-29T01:14:02.776Z,101099.59
2023-03-29T01:17:06.626Z,101098.16
2023-03-29T01:20:28.687Z,101102.44
2023-03-29T01:23:43.606Z,101094.72
2023-03-29T01:27:12.497Z,101101.59
2023-03-29T01:30:21.337Z,101093.84
2023-03-29T01:33:33.854Z,101094.94
2023-03-29T01:36:51.388Z,101103.91
2023-03-29T01:39:54.365Z,101104.00
2023-03-29T01:43:18.952Z,101106.50
2023-03-29T01:46:46.538Z,101108.53
2023-03-29T01:50:02.852Z,101100.47
2023-03-29T01:53:08.861Z,101107.72
2023-03-29T01:56:19.595Z,101109.34
2023-03-29T01:59:31.600Z,101111.56
2023-03-29T02:02:34.913Z,101117.44
2023-03-29T02:05:39.873Z,101116.44
2023-03-29T02:08:44.942Z,101113.59
2023-03-29T02:11:51.860Z,101121.75
2023-03-29T02:14:54.462Z,101112.59
2023-03-29T02:17:57.486Z,101112.88
2023-03-29T02:21:01.229Z,101120.50
2023-03-29T02:24:09.219Z,101111.41
2023-03-29T02:27:13.311Z,101124.06
2023-03-29T02:30:21.006Z,101122.25
2023-03-29T02:33:32.843Z,101122.44
2023-03-29T02:36:47.629Z,101116.16
2023-03-29T02:39:51.466Z,101115.09
2023-03-29T02:42:56.225Z,101113.91
2023-03-29T02:45:59.359Z,101128.09
2023-03-29T02:49:02.292Z,101125.00
2023-03-29T02:52:11.699Z,101127.41
2023-03-29T02:55:17.697Z,101129.41
2023-03-29T02:58:20.673Z,101125.94
2023-03-29T03:01:23.826Z,101147.50
2023-03-29T03:04:26.717Z,101136.31
2023-03-29T03:07:29.982Z,101141.66
2023-03-29T03:10:33.747Z,101143.66
2023-03-29T03:13:37.307Z,101142.44
2023-03-29T03:16:39.728Z,101154.06
2023-03-29T03:19:43.031Z,101150.19
2023-03-29T03:22:49.208Z,101147.16
2023-03-29T03:25:53.615Z,101156.78
2023-03-29T03:28:56.785Z,101154.53
2023-03-29T03:32:18.833Z,101155.97
2023-03-29T03:35:24.080Z,101160.41
2023-03-29T03:38:27.470Z,101167.28
2023-03-29T03:41:34.745Z,101162.28
2023-03-29T03:44:39.736Z,101173.13
2023-03-29T03:47:55.884Z,101167.09
2023-03-29T03:51:21.924Z,101185.78
2023-03-29T03:54:26.174Z,101186.22
2023-03-29T03:57:56.421Z,101187.84
2023-03-29T04:00:59.199Z,101180.59
2023-03-29T04:04:13.098Z,101188.44
2023-03-29T04:07:19.029Z,101189.44
2023-03-29T04:10:31.492Z,101194.25
2023-03-29T04:13:50.336Z,101197.47
2023-03-29T04:17:02.159Z,101203.66
2023-03-29T04:20:34.259Z,101210.84
2023-03-29T04:23:37.754Z,101207.59
2023-03-29T04:26:40.889Z,101202.94
2023-03-29T04:29:54.855Z,101217.41
2023-03-29T04:33:08.866Z,101225.63
2023-03-29T04:36:14.203Z,101223.44
2023-03-29T04:39:18.109Z,101227.13
2023-03-29T04:42:23.523Z,101227.34
2023-03-29T04:45:26.820Z,101240.00
2023-03-29T04:48:43.083Z,101239.81
2023-03-29T04:51:45.785Z,101238.59
2023-03-29T04:54:48.686Z,101236.97
2023-03-29T04:57:59.821Z,101237.97
2023-03-29T05:01:21.870Z,101234.69
2023-03-29T05:04:33.093Z,101235.41
2023-03-29T05:07:45.367Z,101234.03
2023-03-29T05:10:50.840Z,101229.53
2023-03-29T05:13:55.831Z,101229.56
2023-03-29T05:16:59.222Z,101225.81
2023-03-29T05:20:07.389Z,101227.09
2023-03-29T05:23:10.566Z,101238.94
2023-03-29T05:26:31.858Z,101234.66
2023-03-29T05:29:34.401Z,101230.25
2023-03-29T05:33:02.554Z,101225.38
2023-03-29T05:36:09.109Z,101218.63
2023-03-29T05:39:15.796Z,101230.94
2023-03-29T05:42:22.429Z,101236.09
2023-03-29T05:45:30.055Z,101229.63
2023-03-29T05:48:33.122Z,101230.09
2023-03-29T05:51:36.490Z,101230.22
2023-03-29T05:54:39.718Z,101238.69
2023-03-29T05:57:42.718Z,101227.44
2023-03-29T06:00:45.890Z,101235.16
2023-03-29T06:04:03.954Z,101242.84
2023-03-29T06:07:24.468Z,101239.47
2023-03-29T06:11:06.897Z,101246.50
2023-03-29T06:14:28.985Z,101245.34
2023-03-29T06:17:46.024Z,101256.59
2023-03-29T06:20:53.011Z,101259.41
2023-03-29T06:23:57.337Z,101263.22
2023-03-29T06:27:02.571Z,101261.47
2023-03-29T06:30:07.338Z,101271.22
2023-03-29T06:33:12.242Z,101274.75
2023-03-29T06:36:28.980Z,101277.59
2023-03-29T06:39:31.682Z,101269.78
2023-03-29T06:42:57.967Z,101281.41
2023-03-29T06:46:19.614Z,101272.47
2023-03-29T06:49:35.504Z,101269.97
2023-03-29T06:53:01.715Z,101269.53
2023-03-29T06:56:09.639Z,101277.56
2023-03-29T06:59:20.951Z,101274.97
2023-03-29T07:02:37.773Z,101278.66
2023-03-29T07:05:51.852Z,101283.25
2023-03-29T07:08:59.842Z,101282.25
2023-03-29T07:12:23.188Z,101297.84
2023-03-29T07:15:27.778Z,101296.50
2023-03-29T07:18:54.433Z,101290.19
2023-03-29T07:22:22.906Z,101298.94
2023-03-29T07:25:30.887Z,101303.47
2023-03-29T07:28:37.624Z,101312.94
2023-03-29T07:31:41.699Z,101304.28
2023-03-29T07:35:23.479Z,101307.03
2023-03-29T07:38:26.213Z,101307.31
2023-03-29T07:41:37.978Z,101311.81
2023-03-29T07:44:48.571Z,101305.59
2023-03-29T07:47:55.678Z,101306.66
2023-03-29T07:50:58.434Z,101304.84
2023-03-29T07:54:09.256Z,101301.63
2023-03-29T07:57:30.970Z,101309.28
2023-03-29T08:00:35.107Z,101304.44
2023-03-29T08:03:57.584Z,101311.91
2023-03-29T08:07:17.683Z,101302.16
2023-03-29T08:10:40.025Z,101300.69
2023-03-29T08:13:51.718Z,101303.41
2023-03-29T08:17:26.556Z,101297.81
2023-03-29T08:20:29.683Z,101301.72
2023-03-29T08:23:37.385Z,101299.88
2023-03-29T08:26:49.479Z,101301.56
2023-03-29T08:29:54.959Z,101294.13
2023-03-29T08:32:58.148Z,101304.09
2023-03-29T08:36:01.275Z,101297.09
2023-03-29T08:39:07.394Z,101295.09
2023-03-29T08:42:31.706Z,101294.00
2023-03-29T08:46:00.889Z,101290.06
2023-03-29T08:49:06.322Z,101290.84
2023-03-29T08:52:21.398Z,101287.84
2023-03-29T08:55:28.690Z,101296.28
2023-03-29T08:58:58.405Z,101286.25
2023-03-29T09:02:16.808Z,101295.53
2023-03-29T09:05:35.265Z,101289.13
2023-03-29T09:08:49.408Z,101289.41
2023-03-29T09:12:19.965Z,101293.56
2023-03-29T09:15:49.366Z,101284.69
2023-03-29T09:19:32.228Z,101282.00
2023-03-29T09:22:46.742Z,101281.81
2023-03-29T09:25:53.573Z,101281.28
2023-03-29T09:29:22.407Z,101276.69
2023-03-29T09:32:33.012Z,101274.16
2023-03-29T09:35:43.987Z,101285.25
2023-03-29T09:38:51.081Z,101285.09
2023-03-29T09:42:04.474Z,101280.56
2023-03-29T09:45:08.700Z,101277.22
2023-03-29T09:48:20.033Z,101274.56
2023-03-29T09:51:33.123Z,101273.50
2023-03-29T09:54:35.735Z,101271.38
2023-03-29T09:58:13.510Z,101264.53
2023-03-29T10:01:20.349Z,101267.03
2023-03-29T10:04:26.224Z,101258.88
2023-03-29T10:07:44.648Z,101269.38
2023-03-29T10:10:48.850Z,101268.19
2023-03-29T10:13:59.383Z,101259.59
2023-03-29T10:17:06.062Z,101252.66
2023-03-29T10:20:15.242Z,101252.28
2023-03-29T10:23:19.163Z,101241.84
2023-03-29T10:26:29.609Z,101230.34
2023-03-29T10:29:38.838Z,101225.25
2023-03-29T10:32:41.491Z,101224.34
2023-03-29T10:35:44.783Z,101226.72
2023-03-29T10:38:48.187Z,101211.13
2023-03-29T10:41:52.922Z,101220.25
2023-03-29T10:44:58.016Z,101219.19
2023-03-29T10:48:01.581Z,101221.22
2023-03-29T10:51:06.086Z,101217.66
2023-03-29T10:54:15.062Z,101203.44
2023-03-29T10:57:37.673Z,101207.03
2023-03-29T11:00:52.327Z,101198.09
2023-03-29T11:04:23.024Z,101187.00
2023-03-29T11:07:34.696Z,101190.47
2023-03-29T11:10:50.758Z,101194.66
2023-03-29T11:14:07.503Z,101181.88
2023-03-29T11:17:42.711Z,101182.44
2023-03-29T11:20:54.009Z,101188.06
2023-03-29T11:24:14.221Z,101178.94
2023-03-29T11:27:35.720Z,101180.00
2023-03-29T11:31:05.709Z,101172.59
2023-03-29T11:34:49.896Z,101158.03
2023-03-29T11:38:07.297Z,101159.31
2023-03-29T11:41:12.477Z,101148.72
2023-03-29T11:44:24.550Z,101150.00
2023-03-29T11:47:37.353Z,101151.38
2023-03-29T11:50:50.534Z,101153.31
2023-03-29T11:54:01.017Z,101140.25
2023-03-29T11:57:18.613Z,101140.19
2023-03-29T12:00:39.075Z,101134.56
2023-03-29T12:03:48.255Z,101132.03
2023-03-29T12:07:01.860Z,101138.34
2023-03-29T12:10:16.718Z,101128.53
2023-03-29T12:13:36.570Z,101131.06
2023-03-29T12:16:48.083Z,101120.88
2023-03-29T12:20:10.442Z,101120.53
2023-03-29T12:23:16.844Z,101121.94
2023-03-29T12:26:57.985Z,101120.03
2023-03-29T12:30:27.581Z,101118.78
2023-03-29T12:34:09.119Z,101105.88
2023-03-29T12:37:47.290Z,101098.31
2023-03-29T12:41:19.235Z,101094.63
2023-03-29T12:44:43.897Z,101099.84
2023-03-29T12:48:02.248Z,101105.31
2023-03-29T12:51:12.343Z,101094.00
2023-03-29T12:54:19.733Z,101088.25
2023-03-29T12:58:00.246Z,101090.16
2023-03-29T13:01:23.382Z,101085.78
2023-03-29T13:04:56.778Z,101092.53
2023-03-29T13:08:10.678Z,101095.16
2023-03-29T13:11:29.298Z,101088.69
2023-03-29T13:14:37.217Z,101076.19
2023-03-29T13:17:45.989Z,101067.19
2023-03-29T13:20:57.427Z,101067.41
2023-03-29T13:24:02.661Z,101069.28
2023-03-29T13:27:34.737Z,101064.09
2023-03-29T13:30:58.974Z,101060.19
2023-03-29T13:34:55.398Z,101061.13
2023-03-29T13:38:16.862Z,101062.75
2023-03-29T13:41:38.539Z,101050.88
2023-03-29T13:44:48.900Z,101050.00
2023-03-29T13:48:22.935Z,101052.31
2023-03-29T13:51:37.086Z,101044.44
2023-03-29T13:54:47.657Z,101040.22
2023-03-29T13:58:15.878Z,101039.94
2023-03-29T14:01:32.371Z,101041.50
2023-03-29T14:04:46.838Z,101038.56
2023-03-29T14:07:53.362Z,101039.44
2023-03-29T14:10:56.647Z,101045.56
2023-03-29T14:14:03.198Z,101036.22
2023-03-29T14:17:05.945Z,101041.69
2023-03-29T14:20:09.783Z,101029.41
2023-03-29T14:23:16.292Z,101036.34
2023-03-29T14:26:22.279Z,101034.63
2023-03-29T14:29:30.896Z,101033.91
2023-03-29T14:32:33.731Z,101030.66
2023-03-29T14:35:36.544Z,101035.75
2023-03-29T14:38:40.067Z,101025.75
2023-03-29T14:41:49.845Z,101025.56
2023-03-29T14:45:07.345Z,101020.16
2023-03-29T14:48:13.427Z,101016.06
2023-03-29T14:51:16.662Z,101008.81
2023-03-29T14:54:22.159Z,101010.09
2023-03-29T14:57:28.603Z,101008.97
2023-03-29T15:00:44.389Z,100999.06
2023-03-29T15:04:16.254Z,100999.56
2023-03-29T15:07:23.345Z,101009.63
2023-03-29T15:10:26.712Z,100998.00
2023-03-29T15:13:30.577Z,100991.44
2023-03-29T15:16:33.961Z,100999.75
2023-03-29T15:19:36.892Z,100997.31
2023-03-29T15:22:52.052Z,100995.00
2023-03-29T15:25:58.398Z,100997.16
2023-03-29T15:29:24.128Z,100994.75
2023-03-29T15:32:34.325Z,100992.72
2023-03-29T15:35:38.155Z,100997.97
2023-03-29T15:38:44.941Z,100996.44
2023-03-29T15:41:50.978Z,100986.06
2023-03-29T15:44:56.268Z,100987.72
2023-03-29T15:48:02.065Z,100985.22
2023-03-29T15:51:06.730Z,100985.41
2023-03-29T15:54:09.930Z,100983.78
2023-03-29T15:57:14.903Z,100975.63
2023-03-29T16:00:21.223Z,100983.09
2023-03-29T16:03:24.567Z,100983.50
2023-03-29T16:06:27.616Z,100984.63
2023-03-29T16:09:30.719Z,101001.38
2023-03-29T16:12:35.807Z,100979.38
2023-03-29T16:15:38.451Z,100989.72
2023-03-29T16:18:41.589Z,100979.91
2023-03-29T16:21:44.992Z,100980.47
2023-03-29T16:24:47.522Z,100989.97
2023-03-29T16:27:50.922Z,100991.84
2023-03-29T16:30:53.638Z,100991.63
2023-03-29T16:33:56.590Z,100989.22
2023-03-29T16:36:59.485Z,100985.56
2023-03-29T16:40:01.967Z,100982.16
2023-03-29T16:43:14.879Z,100988.78
2023-03-29T16:46:17.537Z,100980.06
2023-03-29T16:49:20.054Z,100984.31
2023-03-29T16:52:23.246Z,100977.63
2023-03-29T16:55:26.003Z,100978.66
2023-03-29T16:58:28.553Z,100973.66
2023-03-29T17:01:32.505Z,100981.56
2023-03-29T17:04:35.105Z,100975.47
2023-03-29T17:07:38.326Z,100970.34
2023-03-29T17:10:41.475Z,100976.16
2023-03-29T17:13:44.659Z,100969.22
2023-03-29T17:16:47.211Z,100974.94
2023-03-29T17:19:50.069Z,100971.72
2023-03-29T17:22:55.350Z,100978.25
2023-03-29T17:25:57.948Z,100973.16
2023-03-29T17:29:00.670Z,100985.13
2023-03-29T17:32:03.650Z,100986.84
2023-03-29T17:35:07.049Z,100985.66
2023-03-29T17:38:09.802Z,100986.97
2023-03-29T17:41:12.348Z,100990.31
2023-03-29T17:44:15.585Z,100987.91
2023-03-29T17:47:18.170Z,100991.53
2023-03-29T17:50:21.904Z,100984.75
2023-03-29T17:53:24.852Z,100996.69
2023-03-29T17:56:27.629Z,100997.28
2023-03-29T17:59:30.473Z,101010.69
2023-03-29T18:02:34.009Z,101005.00
2023-03-29T18:05:36.760Z,101005.88
2023-03-29T18:08:39.895Z,101011.19
2023-03-29T18:11:43.226Z,101008.59
2023-03-29T18:14:47.806Z,101009.03
2023-03-29T18:17:51.094Z,101011.09
2023-03-29T18:20:53.906Z,101019.66
2023-03-29T18:23:57.092Z,101025.47
2023-03-29T18:26:59.917Z,101029.88
2023-03-29T18:30:03.326Z,101023.16
2023-03-29T18:33:06.553Z,101028.53
2023-03-29T18:36:13.284Z,101029.03
2023-03-29T18:39:16.828Z,101032.06
2023-03-29T18:42:21.864Z,101042.09
2023-03-29T18:45:24.655Z,101044.69
2023-03-29T18:48:27.639Z,101049.44
2023-03-29T18:51:31.278Z,101047.19
2023-03-29T18:54:34.408Z,101051.56
2023-03-29T18:57:37.400Z,101046.16
2023-03-29T19:00:41.344Z,101052.13
2023-03-29T19:03:44.261Z,101056.25
2023-03-29T19:06:49.288Z,101063.09
2023-03-29T19:09:52.192Z,101061.19
2023-03-29T19:12:55.136Z,101056.06
2023-03-29T19:15:58.027Z,101065.66
2023-03-29T19:19:01.559Z,101061.25
2023-03-29T19:22:04.851Z,101062.50
2023-03-29T19:25:08.038Z,101059.56
2023-03-29T19:28:11.246Z,101060.22
2023-03-29T19:31:13.919Z,101060.28
2023-03-29T19:34:19.849Z,101059.22
2023-03-29T19:37:22.653Z,101055.41
2023-03-29T19:40:27.451Z,101071.09
2023-03-29T19:43:31.651Z,101061.28
2023-03-29T19:46:34.772Z,101055.38
2023-03-29T19:49:38.292Z,101054.97
2023-03-29T19:52:41.807Z,101045.69
2023-03-29T19:55:45.327Z,101039.91
2023-03-29T19:58:48.615Z,101047.31
2023-03-29T20:01:51.351Z,101050.22
2023-03-29T20:04:55.361Z,101043.44
2023-03-29T20:07:58.108Z,101043.47
2023-03-29T20:11:04.049Z,101047.78
2023-03-29T20:14:06.878Z,101030.16
2023-03-29T20:17:10.093Z,101031.88
2023-03-29T20:20:13.996Z,101035.47
2023-03-29T20:23:17.296Z,101042.94
2023-03-29T20:26:19.936Z,101052.22
2023-03-29T20:29:23.191Z,101044.94
2023-03-29T20:32:25.843Z,101049.50
2023-03-29T20:35:28.644Z,101044.78
2023-03-29T20:38:31.442Z,101034.97
2023-03-29T20:41:38.412Z,101035.09
2023-03-29T20:44:41.014Z,101040.38
2023-03-29T20:47:50.509Z,101047.22
2023-03-29T20:50:54.248Z,101039.22
2023-03-29T20:54:07.743Z,101043.44
2023-03-29T20:57:14.235Z,101034.75
2023-03-29T21:00:19.834Z,101033.06
2023-03-29T21:03:22.653Z,101033.53
2023-03-29T21:06:25.586Z,101036.91
2023-03-29T21:09:27.945Z,101039.03
2023-03-29T21:12:31.074Z,101035.47
2023-03-29T21:15:34.598Z,101025.94
2023-03-29T21:18:38.949Z,101022.72
2023-03-29T21:21:42.754Z,101030.50
2023-03-29T21:24:45.746Z,101031.84
2023-03-29T21:27:49.149Z,101040.41
2023-03-29T21:30:51.833Z,101036.91
2023-03-29T21:33:56.565Z,101030.94
2023-03-29T21:36:59.270Z,101029.25
2023-03-29T21:40:05.747Z,101031.25
2023-03-29T21:43:09.387Z,101022.38
2023-03-29T21:46:11.909Z,101030.34
2023-03-29T21:49:14.964Z,101034.72
2023-03-29T21:52:17.917Z,101038.47
2023-03-29T21:55:20.673Z,101036.97
2023-03-29T21:58:23.347Z,101038.44
2023-03-29T22:01:26.379Z,101031.88
2023-03-29T22:04:36.526Z,101031.25
2023-03-29T22:07:40.534Z,101037.06
2023-03-29T22:10:43.127Z,101039.34
2023-03-29T22:13:46.526Z,101045.50
2023-03-29T22:16:49.082Z,101044.56
2023-03-29T22:19:52.545Z,101036.38
2023-03-29T22:22:55.686Z,101042.44
2023-03-29T22:25:58.260Z,101039.56
2023-03-29T22:29:01.751Z,101045.94
2023-03-29T22:32:04.979Z,101038.78
2023-03-29T22:35:08.306Z,101035.03
2023-03-29T22:38:10.854Z,101045.19
2023-03-29T22:41:14.377Z,101036.47
2023-03-29T22:44:17.438Z,101036.94
2023-03-29T22:47:19.935Z,101043.31
2023-03-29T22:50:22.825Z,101042.41
2023-03-29T22:53:25.768Z,101042.78
2023-03-29T22:56:28.599Z,101027.81
2023-03-29T22:59:31.359Z,101027.47
2023-03-29T23:02:34.119Z,101037.47
2023-03-29T23:05:36.686Z,101021.78
2023-03-29T23:08:39.749Z,101020.44
2023-03-29T23:11:42.416Z,101014.13
2023-03-29T23:14:45.456Z,101027.53
2023-03-29T23:17:48.643Z,101016.91
2023-03-29T23:20:54.858Z,101025.03
2023-03-29T23:23:57.579Z,101033.56
2023-03-29T23:27:01.435Z,101032.03
2023-03-29T23:30:04.270Z,101025.25
2023-03-29T23:33:07.840Z,101030.19
2023-03-29T23:36:16.299Z,101029.19
2023-03-29T23:39:19.478Z,101036.25
2023-03-29T23:42:22.621Z,101037.88
2023-03-29T23:45:27.113Z,101038.34
2023-03-29T23:48:29.881Z,101033.06
2023-03-29T23:51:35.397Z,101035.63
2023-03-29T23:54:38.056Z,101025.19
2023-03-29T23:57:40.983Z,101029.72
